Amber, Washington
Current Conditions -  °F | °C
As of 5:03 AM on Sunday 23 Nov 2014 (Local Time) from KSKA Reporting Station
Few Clouds Few Clouds  
Wind Chill: 23°   Ceiling: Unl
Heat Index: 30°   Visibility: 10mi
Dew Point: 28°   Wind: 7mph
Humidity: 93%   Direction: 180°S
Pressure: 30.09"   Gusts: NA
Location:  47.411°N, 117.628°W
Report Text: KSKA 231303Z AUTO 18006KT 10SM FEW004 M01/M02 A3009 RMK AO2
Loading
Personal Weather Stations






























Interactive Weather Map New forecast layout! Learn more

10-Day Weather Forecast

Advertisements
Track Severe Weather on mobile